createdAt,value
2022-08-20T00:01:50.361Z,22.09
2022-08-20T00:07:00.038Z,22.12
2022-08-20T00:12:08.995Z,22.17
2022-08-20T00:17:16.862Z,22.20
2022-08-20T00:22:24.520Z,22.20
2022-08-20T00:27:31.978Z,22.27
2022-08-20T00:32:48.656Z,22.30
2022-08-20T00:38:00.563Z,22.28
2022-08-20T00:43:27.366Z,22.23
2022-08-20T00:48:34.274Z,22.25
2022-08-20T00:53:42.559Z,22.29
2022-08-20T00:58:52.355Z,22.31
2022-08-20T01:03:59.717Z,22.28
2022-08-20T01:09:07.689Z,22.25
2022-08-20T01:14:31.836Z,22.21
2022-08-20T01:19:43.493Z,22.20
2022-08-20T01:24:55.174Z,22.17
2022-08-20T01:30:06.128Z,22.09
2022-08-20T01:35:14.014Z,22.03
2022-08-20T01:40:34.622Z,22.00
2022-08-20T01:45:41.935Z,21.99
2022-08-20T01:50:56.962Z,22.01
2022-08-20T01:56:04.256Z,22.03
2022-08-20T02:01:23.774Z,22.01
2022-08-20T02:06:33.268Z,21.98
2022-08-20T02:11:41.563Z,21.88
2022-08-20T02:16:54.969Z,21.81
2022-08-20T02:22:10.246Z,21.71
2022-08-20T02:27:19.089Z,21.62
2022-08-20T02:32:33.455Z,21.64
2022-08-20T02:37:43.720Z,21.56
2022-08-20T02:42:51.061Z,21.52
2022-08-20T02:47:59.515Z,21.50
2022-08-20T02:53:06.831Z,21.45
2022-08-20T02:58:14.280Z,21.31
2022-08-20T03:03:22.951Z,21.30
2022-08-20T03:08:30.641Z,21.36
2022-08-20T03:13:38.641Z,21.30
2022-08-20T03:18:47.818Z,21.28
2022-08-20T03:23:59.164Z,21.35
2022-08-20T03:29:06.316Z,21.41
2022-08-20T03:34:13.310Z,21.44
2022-08-20T03:39:20.311Z,21.45
2022-08-20T03:44:27.579Z,21.31
2022-08-20T03:49:34.429Z,21.20
2022-08-20T03:54:41.618Z,21.11
2022-08-20T03:59:51.954Z,21.09
2022-08-20T04:05:06.927Z,21.10
2022-08-20T04:10:14.789Z,21.19
2022-08-20T04:15:24.799Z,21.16
2022-08-20T04:20:32.122Z,21.07
2022-08-20T04:25:43.281Z,21.02
2022-08-20T04:30:52.218Z,21.01
2022-08-20T04:36:02.879Z,21.03
2022-08-20T04:41:09.863Z,21.07
2022-08-20T04:46:33.174Z,21.17
2022-08-20T04:51:40.021Z,21.26
2022-08-20T04:56:48.498Z,21.35
2022-08-20T05:01:55.605Z,21.43
2022-08-20T05:07:02.756Z,21.51
2022-08-20T05:12:10.857Z,21.61
2022-08-20T05:17:19.167Z,21.70
2022-08-20T05:22:27.714Z,21.80
2022-08-20T05:27:38.897Z,21.88
2022-08-20T05:32:47.558Z,21.94
2022-08-20T05:37:55.677Z,22.07
2022-08-20T05:43:04.856Z,22.26
2022-08-20T05:48:17.489Z,22.44
2022-08-20T05:53:26.287Z,22.60
2022-08-20T05:58:33.278Z,22.68
2022-08-20T06:03:58.199Z,22.74
2022-08-20T06:09:05.348Z,22.79
2022-08-20T06:14:12.441Z,22.86
2022-08-20T06:19:25.143Z,22.95
2022-08-20T06:24:33.555Z,23.07
2022-08-20T06:29:40.604Z,23.13
2022-08-20T06:34:50.955Z,23.15
2022-08-20T06:40:01.606Z,23.23
2022-08-20T06:45:10.414Z,23.30
2022-08-20T06:50:26.116Z,23.35
2022-08-20T06:55:33.266Z,23.44
2022-08-20T07:00:42.791Z,23.55
2022-08-20T07:05:50.881Z,23.65
2022-08-20T07:10:57.892Z,23.71
2022-08-20T07:16:05.399Z,23.77
2022-08-20T07:21:13.117Z,23.81
2022-08-20T07:26:20.685Z,23.87
2022-08-20T07:31:45.387Z,23.92
2022-08-20T07:36:55.260Z,23.99
2022-08-20T07:42:07.628Z,24.04
2022-08-20T07:47:14.630Z,24.16
2022-08-20T07:52:22.297Z,24.30
2022-08-20T07:57:29.308Z,24.41
2022-08-20T08:02:36.948Z,24.51
2022-08-20T08:07:44.583Z,24.57
2022-08-20T08:12:53.743Z,24.61
2022-08-20T08:18:09.773Z,24.70
2022-08-20T08:23:24.794Z,24.78
2022-08-20T08:28:41.527Z,24.86
2022-08-20T08:33:48.892Z,24.92
2022-08-20T08:38:56.875Z,25.11
2022-08-20T08:44:08.372Z,25.39
2022-08-20T08:49:19.791Z,25.61
2022-08-20T08:54:29.888Z,25.79
2022-08-20T08:59:52.092Z,25.95
2022-08-20T09:05:13.514Z,26.05
2022-08-20T09:10:23.305Z,26.13
2022-08-20T09:15:30.625Z,26.22
2022-08-20T09:20:37.636Z,26.34
2022-08-20T09:25:44.715Z,26.45
2022-08-20T09:30:54.091Z,26.55
2022-08-20T09:36:01.146Z,26.70
2022-08-20T09:41:08.475Z,26.82
2022-08-20T09:46:15.645Z,26.95
2022-08-20T09:51:23.136Z,27.05
2022-08-20T09:56:37.385Z,27.18
2022-08-20T10:01:44.417Z,27.34
2022-08-20T10:06:51.660Z,27.47
2022-08-20T10:11:58.732Z,27.54
2022-08-20T10:17:06.206Z,27.62
2022-08-20T10:22:13.383Z,27.70
2022-08-20T10:27:20.303Z,27.81
2022-08-20T10:32:28.840Z,27.93
2022-08-20T10:37:36.661Z,28.06
2022-08-20T10:42:43.565Z,28.18
2022-08-20T10:47:50.607Z,28.26
2022-08-20T10:52:57.707Z,28.36
2022-08-20T10:58:08.200Z,28.44
2022-08-20T11:03:18.416Z,28.50
2022-08-20T11:08:33.521Z,28.57
2022-08-20T11:13:41.834Z,28.63
2022-08-20T11:18:48.762Z,28.71
2022-08-20T11:23:58.089Z,28.72
2022-08-20T11:29:07.028Z,28.75
2022-08-20T11:34:14.034Z,28.80
2022-08-20T11:39:21.442Z,28.86
2022-08-20T11:44:28.862Z,28.89
2022-08-20T11:49:38.012Z,28.90
2022-08-20T11:54:45.014Z,28.92
2022-08-20T11:59:54.774Z,28.95
2022-08-20T12:05:01.707Z,28.90
2022-08-20T12:10:10.245Z,28.76
2022-08-20T12:15:17.605Z,28.62
2022-08-20T12:20:25.228Z,28.55
2022-08-20T12:25:32.263Z,28.50
2022-08-20T12:30:39.531Z,28.42
2022-08-20T12:35:46.498Z,28.31
2022-08-20T12:40:53.531Z,28.22
2022-08-20T12:46:00.564Z,28.14
2022-08-20T12:51:08.087Z,28.04
2022-08-20T12:56:15.055Z,27.93
2022-08-20T13:01:22.168Z,27.81
2022-08-20T13:06:29.480Z,27.65
2022-08-20T13:11:36.450Z,27.48
2022-08-20T13:16:43.354Z,27.36
2022-08-20T13:21:54.876Z,27.27
2022-08-20T13:27:10.036Z,27.15
2022-08-20T13:32:17.402Z,26.96
2022-08-20T13:37:27.042Z,26.65
2022-08-20T13:42:34.311Z,26.16
2022-08-20T13:47:42.867Z,25.67
2022-08-20T13:52:50.054Z,25.30
2022-08-20T13:57:58.492Z,25.01
2022-08-20T14:03:07.174Z,24.62
2022-08-20T14:08:16.712Z,24.10
2022-08-20T14:13:26.065Z,23.72
2022-08-20T14:18:33.354Z,23.41
2022-08-20T14:23:40.310Z,23.22
2022-08-20T14:28:47.130Z,23.06
2022-08-20T14:33:54.345Z,22.90
2022-08-20T14:39:01.654Z,22.72
2022-08-20T14:44:08.860Z,22.54
2022-08-20T14:49:16.876Z,22.40
2022-08-20T14:54:23.979Z,22.34
2022-08-20T14:59:31.794Z,22.34
2022-08-20T15:04:40.893Z,22.34
2022-08-20T15:09:48.271Z,22.35
2022-08-20T15:14:55.438Z,22.37
2022-08-20T15:20:11.024Z,22.36
2022-08-20T15:25:36.125Z,22.34
2022-08-20T15:30:44.706Z,22.32
2022-08-20T15:35:51.955Z,22.25
2022-08-20T15:41:01.118Z,22.20
2022-08-20T15:46:09.089Z,22.15
2022-08-20T15:51:27.687Z,22.12
2022-08-20T15:56:48.977Z,22.16
2022-08-20T16:02:05.267Z,22.23
2022-08-20T16:07:19.960Z,22.21
2022-08-20T16:12:35.091Z,22.01
2022-08-20T16:17:47.378Z,21.73
2022-08-20T16:22:54.568Z,21.54
2022-08-20T16:28:12.217Z,21.38
2022-08-20T16:33:26.953Z,21.26
2022-08-20T16:38:44.631Z,21.19
2022-08-20T16:43:57.667Z,21.12
2022-08-20T16:49:13.446Z,21.02
2022-08-20T16:54:28.305Z,20.98
2022-08-20T16:59:35.314Z,20.93
2022-08-20T17:04:58.780Z,20.92
2022-08-20T17:10:20.605Z,20.96
2022-08-20T17:15:31.353Z,21.02
2022-08-20T17:20:46.587Z,21.04
2022-08-20T17:26:01.724Z,21.14
2022-08-20T17:31:09.643Z,21.06
2022-08-20T17:36:26.261Z,20.95
2022-08-20T17:41:36.990Z,20.88
2022-08-20T17:46:46.562Z,20.74
2022-08-20T17:51:56.829Z,20.60
2022-08-20T17:57:08.197Z,20.46
2022-08-20T18:02:17.384Z,20.37
2022-08-20T18:07:28.640Z,20.35
2022-08-20T18:12:42.901Z,20.33
2022-08-20T18:18:14.054Z,20.28
2022-08-20T18:23:26.899Z,20.25
2022-08-20T18:28:38.708Z,20.25
2022-08-20T18:33:46.608Z,20.24
2022-08-20T18:39:06.203Z,20.18
2022-08-20T18:44:16.955Z,20.11
2022-08-20T18:49:32.178Z,20.09
2022-08-20T18:54:42.257Z,20.07
2022-08-20T18:59:53.551Z,20.04
2022-08-20T19:05:03.131Z,20.02
2022-08-20T19:10:32.821Z,19.94
2022-08-20T19:15:44.327Z,19.87
2022-08-20T19:20:57.159Z,19.80
2022-08-20T19:26:07.469Z,19.77
2022-08-20T19:31:33.870Z,19.74
2022-08-20T19:36:43.430Z,19.72
2022-08-20T19:41:55.531Z,19.70
2022-08-20T19:47:04.498Z,19.69
2022-08-20T19:52:22.550Z,19.67
2022-08-20T19:57:29.890Z,19.65
2022-08-20T20:02:37.360Z,19.63
2022-08-20T20:07:47.491Z,19.60
2022-08-20T20:12:54.645Z,19.59
2022-08-20T20:18:02.396Z,19.59
2022-08-20T20:23:19.241Z,19.56
2022-08-20T20:28:29.763Z,19.50
2022-08-20T20:33:44.003Z,19.47
2022-08-20T20:38:58.419Z,19.48
2022-08-20T20:44:08.198Z,19.51
2022-08-20T20:49:23.875Z,19.54
2022-08-20T20:54:41.599Z,19.60
2022-08-20T20:59:49.899Z,19.67
2022-08-20T21:04:58.576Z,19.73
2022-08-20T21:10:06.926Z,19.77
2022-08-20T21:15:14.804Z,19.77
2022-08-20T21:20:23.078Z,19.77
2022-08-20T21:25:33.332Z,19.77
2022-08-20T21:30:40.433Z,19.73
2022-08-20T21:35:47.610Z,19.69
2022-08-20T21:40:55.280Z,19.64
2022-08-20T21:46:06.242Z,19.61
2022-08-20T21:51:13.554Z,19.57
2022-08-20T21:56:20.975Z,19.53
2022-08-20T22:01:29.911Z,19.50
2022-08-20T22:06:37.226Z,19.48
2022-08-20T22:11:44.414Z,19.46
2022-08-20T22:16:51.411Z,19.45
2022-08-20T22:21:59.031Z,19.42
2022-08-20T22:27:08.638Z,19.34
2022-08-20T22:32:16.037Z,19.28
2022-08-20T22:37:32.559Z,19.23
2022-08-20T22:42:41.970Z,19.18
2022-08-20T22:47:49.194Z,19.15
2022-08-20T22:52:56.793Z,19.14
2022-08-20T22:58:05.130Z,19.13
2022-08-20T23:03:12.714Z,19.15
2022-08-20T23:08:19.937Z,19.19
2022-08-20T23:13:26.945Z,19.23
2022-08-20T23:18:34.349Z,19.26
2022-08-20T23:23:41.242Z,19.25
2022-08-20T23:28:48.281Z,19.24
2022-08-20T23:33:55.346Z,19.20
2022-08-20T23:39:02.353Z,19.16
2022-08-20T23:44:26.084Z,19.13
2022-08-20T23:49:34.252Z,19.11
2022-08-20T23:54:41.289Z,19.07
2022-08-20T23:59:48.359Z,19.05
